sensor_id;sensor_type;location;lat;lon;timestamp;P1;durP1;ratioP1;P2;durP2;ratioP2
7487;SDS011;3785;52.260;4.728;2023-07-28T00:02:06;6.07;;;3.83;;
7487;SDS011;3785;52.260;4.728;2023-07-28T00:05:27;5.82;;;2.78;;
7487;SDS011;3785;52.260;4.728;2023-07-28T00:08:48;6.88;;;3.35;;
7487;SDS011;3785;52.260;4.728;2023-07-28T00:12:09;5.32;;;3.45;;
7487;SDS011;3785;52.260;4.728;2023-07-28T00:15:30;7.18;;;3.47;;
7487;SDS011;3785;52.260;4.728;2023-07-28T00:18:51;5.10;;;3.08;;
7487;SDS011;3785;52.260;4.728;2023-07-28T00:22:12;8.75;;;3.38;;
7487;SDS011;3785;52.260;4.728;2023-07-28T00:25:33;5.32;;;2.90;;
7487;SDS011;3785;52.260;4.728;2023-07-28T00:28:53;7.93;;;3.28;;
7487;SDS011;3785;52.260;4.728;2023-07-28T00:32:14;7.03;;;3.50;;
7487;SDS011;3785;52.260;4.728;2023-07-28T00:35:35;6.78;;;3.28;;
7487;SDS011;3785;52.260;4.728;2023-07-28T00:38:57;7.10;;;3.75;;
7487;SDS011;3785;52.260;4.728;2023-07-28T00:42:18;4.78;;;3.35;;
7487;SDS011;3785;52.260;4.728;2023-07-28T00:45:39;7.78;;;3.88;;
7487;SDS011;3785;52.260;4.728;2023-07-28T00:49:00;7.55;;;3.25;;
7487;SDS011;3785;52.260;4.728;2023-07-28T00:52:21;8.13;;;4.00;;
7487;SDS011;3785;52.260;4.728;2023-07-28T00:55:42;6.32;;;3.20;;
7487;SDS011;3785;52.260;4.728;2023-07-28T00:59:03;6.95;;;3.50;;
7487;SDS011;3785;52.260;4.728;2023-07-28T01:02:24;8.95;;;4.53;;
7487;SDS011;3785;52.260;4.728;2023-07-28T01:09:20;5.63;;;3.22;;
7487;SDS011;3785;52.260;4.728;2023-07-28T01:12:42;5.18;;;3.10;;
7487;SDS011;3785;52.260;4.728;2023-07-28T01:16:03;6.63;;;3.00;;
7487;SDS011;3785;52.260;4.728;2023-07-28T01:19:24;6.03;;;2.65;;
7487;SDS011;3785;52.260;4.728;2023-07-28T01:26:36;5.05;;;3.35;;
7487;SDS011;3785;52.260;4.728;2023-07-28T01:29:57;8.02;;;4.30;;
7487;SDS011;3785;52.260;4.728;2023-07-28T01:33:18;6.63;;;4.22;;
7487;SDS011;3785;52.260;4.728;2023-07-28T01:36:39;10.35;;;3.88;;
7487;SDS011;3785;52.260;4.728;2023-07-28T01:40:00;7.82;;;3.67;;
7487;SDS011;3785;52.260;4.728;2023-07-28T01:43:22;11.55;;;4.20;;
7487;SDS011;3785;52.260;4.728;2023-07-28T01:46:43;8.43;;;3.80;;
7487;SDS011;3785;52.260;4.728;2023-07-28T01:50:04;7.32;;;3.90;;
7487;SDS011;3785;52.260;4.728;2023-07-28T01:53:25;8.43;;;3.97;;
7487;SDS011;3785;52.260;4.728;2023-07-28T01:56:46;7.57;;;3.83;;
7487;SDS011;3785;52.260;4.728;2023-07-28T02:00:07;6.68;;;3.50;;
7487;SDS011;3785;52.260;4.728;2023-07-28T02:03:28;10.73;;;4.30;;
7487;SDS011;3785;52.260;4.728;2023-07-28T02:06:48;7.05;;;3.47;;
7487;SDS011;3785;52.260;4.728;2023-07-28T02:10:09;7.07;;;3.25;;
7487;SDS011;3785;52.260;4.728;2023-07-28T02:13:30;10.23;;;3.75;;
7487;SDS011;3785;52.260;4.728;2023-07-28T02:16:51;10.20;;;3.95;;
7487;SDS011;3785;52.260;4.728;2023-07-28T02:20:12;7.30;;;3.97;;
7487;SDS011;3785;52.260;4.728;2023-07-28T02:23:35;8.43;;;4.47;;
7487;SDS011;3785;52.260;4.728;2023-07-28T02:26:55;10.32;;;3.60;;
7487;SDS011;3785;52.260;4.728;2023-07-28T02:30:18;8.82;;;3.83;;
7487;SDS011;3785;52.260;4.728;2023-07-28T02:33:39;9.27;;;3.70;;
7487;SDS011;3785;52.260;4.728;2023-07-28T02:37:01;7.78;;;3.95;;
7487;SDS011;3785;52.260;4.728;2023-07-28T02:40:22;5.75;;;3.08;;
7487;SDS011;3785;52.260;4.728;2023-07-28T02:43:43;6.53;;;2.88;;
7487;SDS011;3785;52.260;4.728;2023-07-28T02:47:04;7.40;;;3.90;;
7487;SDS011;3785;52.260;4.728;2023-07-28T02:50:25;7.38;;;3.50;;
7487;SDS011;3785;52.260;4.728;2023-07-28T02:53:47;5.63;;;3.17;;
7487;SDS011;3785;52.260;4.728;2023-07-28T02:57:08;7.95;;;3.55;;
7487;SDS011;3785;52.260;4.728;2023-07-28T03:00:29;6.97;;;3.53;;
7487;SDS011;3785;52.260;4.728;2023-07-28T03:03:49;7.47;;;3.58;;
7487;SDS011;3785;52.260;4.728;2023-07-28T03:07:11;7.22;;;3.60;;
7487;SDS011;3785;52.260;4.728;2023-07-28T03:10:32;10.30;;;3.70;;
7487;SDS011;3785;52.260;4.728;2023-07-28T03:13:53;9.43;;;3.75;;
7487;SDS011;3785;52.260;4.728;2023-07-28T03:17:14;8.68;;;3.72;;
7487;SDS011;3785;52.260;4.728;2023-07-28T03:20:35;7.57;;;3.53;;
7487;SDS011;3785;52.260;4.728;2023-07-28T03:23:56;5.97;;;3.47;;
7487;SDS011;3785;52.260;4.728;2023-07-28T03:27:17;7.18;;;3.28;;
7487;SDS011;3785;52.260;4.728;2023-07-28T03:30:38;7.13;;;3.30;;
7487;SDS011;3785;52.260;4.728;2023-07-28T03:33:59;4.95;;;3.40;;
7487;SDS011;3785;52.260;4.728;2023-07-28T03:37:20;7.63;;;3.60;;
7487;SDS011;3785;52.260;4.728;2023-07-28T03:40:41;5.13;;;3.05;;
7487;SDS011;3785;52.260;4.728;2023-07-28T03:44:03;5.90;;;3.17;;
7487;SDS011;3785;52.260;4.728;2023-07-28T03:47:25;6.57;;;3.17;;
7487;SDS011;3785;52.260;4.728;2023-07-28T03:50:45;6.97;;;3.58;;
7487;SDS011;3785;52.260;4.728;2023-07-28T03:54:06;7.97;;;3.33;;
7487;SDS011;3785;52.260;4.728;2023-07-28T03:57:28;9.13;;;3.75;;
7487;SDS011;3785;52.260;4.728;2023-07-28T04:00:49;8.00;;;3.25;;
7487;SDS011;3785;52.260;4.728;2023-07-28T04:04:10;9.10;;;4.03;;
7487;SDS011;3785;52.260;4.728;2023-07-28T04:07:31;11.25;;;3.92;;
7487;SDS011;3785;52.260;4.728;2023-07-28T04:10:52;6.72;;;3.55;;
7487;SDS011;3785;52.260;4.728;2023-07-28T04:14:13;9.95;;;3.80;;
7487;SDS011;3785;52.260;4.728;2023-07-28T04:17:34;7.85;;;3.95;;
7487;SDS011;3785;52.260;4.728;2023-07-28T04:20:55;8.13;;;3.58;;
7487;SDS011;3785;52.260;4.728;2023-07-28T04:24:16;8.07;;;3.78;;
7487;SDS011;3785;52.260;4.728;2023-07-28T04:27:37;7.13;;;3.67;;
7487;SDS011;3785;52.260;4.728;2023-07-28T04:30:58;6.15;;;3.50;;
7487;SDS011;3785;52.260;4.728;2023-07-28T04:34:19;7.93;;;3.92;;
7487;SDS011;3785;52.260;4.728;2023-07-28T04:37:40;8.40;;;4.45;;
7487;SDS011;3785;52.260;4.728;2023-07-28T04:41:01;7.97;;;3.90;;
7487;SDS011;3785;52.260;4.728;2023-07-28T04:44:22;7.68;;;4.03;;
7487;SDS011;3785;52.260;4.728;2023-07-28T04:47:43;11.43;;;4.57;;
7487;SDS011;3785;52.260;4.728;2023-07-28T04:51:04;8.15;;;4.22;;
7487;SDS011;3785;52.260;4.728;2023-07-28T04:54:25;7.07;;;3.75;;
7487;SDS011;3785;52.260;4.728;2023-07-28T04:57:46;12.60;;;5.70;;
7487;SDS011;3785;52.260;4.728;2023-07-28T05:01:07;10.85;;;5.28;;
7487;SDS011;3785;52.260;4.728;2023-07-28T05:04:29;7.93;;;4.60;;
7487;SDS011;3785;52.260;4.728;2023-07-28T05:07:50;7.05;;;4.63;;
7487;SDS011;3785;52.260;4.728;2023-07-28T05:11:11;8.73;;;4.63;;
7487;SDS011;3785;52.260;4.728;2023-07-28T05:14:31;8.73;;;4.75;;
7487;SDS011;3785;52.260;4.728;2023-07-28T05:17:52;7.82;;;4.18;;
7487;SDS011;3785;52.260;4.728;2023-07-28T05:21:13;8.50;;;4.47;;
7487;SDS011;3785;52.260;4.728;2023-07-28T05:24:34;10.48;;;4.70;;
7487;SDS011;3785;52.260;4.728;2023-07-28T05:27:55;10.73;;;4.65;;
7487;SDS011;3785;52.260;4.728;2023-07-28T05:31:16;8.82;;;4.63;;
7487;SDS011;3785;52.260;4.728;2023-07-28T05:34:38;8.38;;;4.60;;
7487;SDS011;3785;52.260;4.728;2023-07-28T05:37:58;7.60;;;5.05;;
7487;SDS011;3785;52.260;4.728;2023-07-28T05:41:19;10.70;;;4.95;;
7487;SDS011;3785;52.260;4.728;2023-07-28T05:44:40;8.77;;;4.93;;
7487;SDS011;3785;52.260;4.728;2023-07-28T05:48:01;10.57;;;5.40;;
7487;SDS011;3785;52.260;4.728;2023-07-28T05:51:22;10.38;;;4.93;;
7487;SDS011;3785;52.260;4.728;2023-07-28T05:54:43;7.22;;;4.25;;
7487;SDS011;3785;52.260;4.728;2023-07-28T05:58:04;7.78;;;4.65;;
7487;SDS011;3785;52.260;4.728;2023-07-28T06:01:25;6.63;;;4.15;;
7487;SDS011;3785;52.260;4.728;2023-07-28T06:04:47;11.25;;;4.68;;
7487;SDS011;3785;52.260;4.728;2023-07-28T06:08:08;10.98;;;4.90;;
7487;SDS011;3785;52.260;4.728;2023-07-28T06:11:29;10.10;;;4.30;;
7487;SDS011;3785;52.260;4.728;2023-07-28T06:14:50;5.63;;;4.13;;
7487;SDS011;3785;52.260;4.728;2023-07-28T06:18:11;8.25;;;4.38;;
7487;SDS011;3785;52.260;4.728;2023-07-28T06:21:32;6.03;;;4.55;;
7487;SDS011;3785;52.260;4.728;2023-07-28T06:24:53;8.85;;;4.22;;
7487;SDS011;3785;52.260;4.728;2023-07-28T06:28:14;6.68;;;4.07;;
7487;SDS011;3785;52.260;4.728;2023-07-28T06:31:35;7.45;;;3.58;;
7487;SDS011;3785;52.260;4.728;2023-07-28T06:34:56;8.95;;;3.83;;
7487;SDS011;3785;52.260;4.728;2023-07-28T06:38:17;6.93;;;4.30;;
7487;SDS011;3785;52.260;4.728;2023-07-28T06:41:38;8.95;;;4.13;;
7487;SDS011;3785;52.260;4.728;2023-07-28T06:44:59;6.47;;;4.45;;
7487;SDS011;3785;52.260;4.728;2023-07-28T06:48:21;6.63;;;3.90;;
7487;SDS011;3785;52.260;4.728;2023-07-28T06:51:42;5.97;;;3.88;;
7487;SDS011;3785;52.260;4.728;2023-07-28T06:55:03;6.43;;;3.88;;
7487;SDS011;3785;52.260;4.728;2023-07-28T06:58:24;5.82;;;3.72;;
7487;SDS011;3785;52.260;4.728;2023-07-28T07:01:45;8.52;;;4.40;;
7487;SDS011;3785;52.260;4.728;2023-07-28T07:05:06;6.32;;;3.83;;
7487;SDS011;3785;52.260;4.728;2023-07-28T07:08:27;9.00;;;4.25;;
7487;SDS011;3785;52.260;4.728;2023-07-28T07:11:48;6.60;;;3.70;;
7487;SDS011;3785;52.260;4.728;2023-07-28T07:15:09;6.57;;;3.80;;
7487;SDS011;3785;52.260;4.728;2023-07-28T07:18:31;7.05;;;4.20;;
7487;SDS011;3785;52.260;4.728;2023-07-28T07:21:52;9.13;;;4.10;;
7487;SDS011;3785;52.260;4.728;2023-07-28T07:25:13;7.40;;;3.35;;
7487;SDS011;3785;52.260;4.728;2023-07-28T07:28:34;9.30;;;4.18;;
7487;SDS011;3785;52.260;4.728;2023-07-28T07:31:55;7.07;;;4.63;;
7487;SDS011;3785;52.260;4.728;2023-07-28T07:35:17;5.55;;;3.83;;
7487;SDS011;3785;52.260;4.728;2023-07-28T07:38:38;6.15;;;3.95;;
7487;SDS011;3785;52.260;4.728;2023-07-28T07:42:00;6.90;;;3.70;;
7487;SDS011;3785;52.260;4.728;2023-07-28T07:45:21;5.55;;;3.80;;
7487;SDS011;3785;52.260;4.728;2023-07-28T07:48:42;5.68;;;3.75;;
7487;SDS011;3785;52.260;4.728;2023-07-28T07:52:03;6.07;;;3.28;;
7487;SDS011;3785;52.260;4.728;2023-07-28T07:55:24;5.32;;;3.30;;
7487;SDS011;3785;52.260;4.728;2023-07-28T07:58:45;6.00;;;2.97;;
7487;SDS011;3785;52.260;4.728;2023-07-28T08:02:06;3.83;;;2.35;;
7487;SDS011;3785;52.260;4.728;2023-07-28T08:05:27;4.22;;;2.88;;
7487;SDS011;3785;52.260;4.728;2023-07-28T08:08:49;7.05;;;3.55;;
7487;SDS011;3785;52.260;4.728;2023-07-28T08:12:12;6.10;;;3.25;;
7487;SDS011;3785;52.260;4.728;2023-07-28T08:15:33;5.07;;;3.25;;
7487;SDS011;3785;52.260;4.728;2023-07-28T08:18:54;5.75;;;3.78;;
7487;SDS011;3785;52.260;4.728;2023-07-28T08:22:15;5.70;;;3.05;;
7487;SDS011;3785;52.260;4.728;2023-07-28T08:25:36;4.15;;;3.15;;
7487;SDS011;3785;52.260;4.728;2023-07-28T08:28:57;4.28;;;2.83;;
7487;SDS011;3785;52.260;4.728;2023-07-28T08:32:18;4.63;;;3.13;;
7487;SDS011;3785;52.260;4.728;2023-07-28T08:35:39;3.75;;;2.80;;
7487;SDS011;3785;52.260;4.728;2023-07-28T08:39:00;4.63;;;2.80;;
7487;SDS011;3785;52.260;4.728;2023-07-28T08:42:21;5.15;;;2.42;;
7487;SDS011;3785;52.260;4.728;2023-07-28T08:45:42;3.88;;;2.38;;
7487;SDS011;3785;52.260;4.728;2023-07-28T08:49:03;3.78;;;2.30;;
7487;SDS011;3785;52.260;4.728;2023-07-28T08:52:24;3.45;;;2.58;;
7487;SDS011;3785;52.260;4.728;2023-07-28T08:55:45;5.28;;;2.40;;
7487;SDS011;3785;52.260;4.728;2023-07-28T08:59:06;4.88;;;2.30;;
7487;SDS011;3785;52.260;4.728;2023-07-28T09:02:27;3.45;;;2.10;;
7487;SDS011;3785;52.260;4.728;2023-07-28T09:05:50;4.05;;;2.20;;
7487;SDS011;3785;52.260;4.728;2023-07-28T09:09:11;4.88;;;2.15;;
7487;SDS011;3785;52.260;4.728;2023-07-28T09:12:32;4.20;;;2.22;;
7487;SDS011;3785;52.260;4.728;2023-07-28T09:15:53;4.32;;;2.08;;
7487;SDS011;3785;52.260;4.728;2023-07-28T09:19:14;4.45;;;2.05;;
7487;SDS011;3785;52.260;4.728;2023-07-28T09:22:35;5.00;;;2.40;;
7487;SDS011;3785;52.260;4.728;2023-07-28T09:25:59;4.18;;;2.55;;
7487;SDS011;3785;52.260;4.728;2023-07-28T09:29:25;3.20;;;2.42;;
7487;SDS011;3785;52.260;4.728;2023-07-28T09:32:48;3.25;;;2.30;;
7487;SDS011;3785;52.260;4.728;2023-07-28T09:36:11;6.00;;;2.38;;
7487;SDS011;3785;52.260;4.728;2023-07-28T09:39:33;4.30;;;2.67;;
7487;SDS011;3785;52.260;4.728;2023-07-28T09:42:54;3.55;;;2.33;;
7487;SDS011;3785;52.260;4.728;2023-07-28T09:46:14;3.95;;;2.30;;
7487;SDS011;3785;52.260;4.728;2023-07-28T09:49:40;4.00;;;2.70;;
7487;SDS011;3785;52.260;4.728;2023-07-28T09:53:02;5.28;;;2.85;;
7487;SDS011;3785;52.260;4.728;2023-07-28T09:56:27;4.07;;;2.40;;
7487;SDS011;3785;52.260;4.728;2023-07-28T09:59:49;3.05;;;2.30;;
7487;SDS011;3785;52.260;4.728;2023-07-28T10:03:11;4.90;;;2.88;;
7487;SDS011;3785;52.260;4.728;2023-07-28T10:06:33;4.57;;;2.70;;
7487;SDS011;3785;52.260;4.728;2023-07-28T10:09:53;4.40;;;2.40;;
7487;SDS011;3785;52.260;4.728;2023-07-28T10:13:20;4.97;;;3.13;;
7487;SDS011;3785;52.260;4.728;2023-07-28T10:16:42;4.90;;;2.78;;
7487;SDS011;3785;52.260;4.728;2023-07-28T10:20:09;4.32;;;2.35;;
7487;SDS011;3785;52.260;4.728;2023-07-28T10:23:53;4.10;;;2.85;;
7487;SDS011;3785;52.260;4.728;2023-07-28T10:27:28;5.13;;;3.20;;
7487;SDS011;3785;52.260;4.728;2023-07-28T10:30:52;4.32;;;2.78;;
7487;SDS011;3785;52.260;4.728;2023-07-28T10:34:15;4.05;;;2.85;;
7487;SDS011;3785;52.260;4.728;2023-07-28T10:38:03;4.30;;;2.70;;
7487;SDS011;3785;52.260;4.728;2023-07-28T10:41:19;4.93;;;2.50;;
7487;SDS011;3785;52.260;4.728;2023-07-28T10:44:39;4.80;;;2.88;;
7487;SDS011;3785;52.260;4.728;2023-07-28T10:48:00;4.32;;;2.78;;
7487;SDS011;3785;52.260;4.728;2023-07-28T10:51:22;4.78;;;2.60;;
7487;SDS011;3785;52.260;4.728;2023-07-28T10:54:44;5.82;;;2.85;;
7487;SDS011;3785;52.260;4.728;2023-07-28T10:58:06;4.20;;;2.90;;
7487;SDS011;3785;52.260;4.728;2023-07-28T11:01:33;3.47;;;2.40;;
7487;SDS011;3785;52.260;4.728;2023-07-28T11:04:55;4.30;;;3.13;;
7487;SDS011;3785;52.260;4.728;2023-07-28T11:08:16;5.95;;;3.03;;
7487;SDS011;3785;52.260;4.728;2023-07-28T11:11:37;3.88;;;2.45;;
7487;SDS011;3785;52.260;4.728;2023-07-28T11:14:58;4.53;;;2.65;;
7487;SDS011;3785;52.260;4.728;2023-07-28T11:18:18;4.47;;;2.30;;
7487;SDS011;3785;52.260;4.728;2023-07-28T11:21:39;3.78;;;2.15;;
7487;SDS011;3785;52.260;4.728;2023-07-28T11:25:01;4.25;;;2.38;;
7487;SDS011;3785;52.260;4.728;2023-07-28T11:28:29;5.22;;;2.75;;
7487;SDS011;3785;52.260;4.728;2023-07-28T11:31:49;4.20;;;2.63;;
7487;SDS011;3785;52.260;4.728;2023-07-28T11:35:11;6.00;;;2.92;;
7487;SDS011;3785;52.260;4.728;2023-07-28T11:38:33;3.58;;;2.45;;
7487;SDS011;3785;52.260;4.728;2023-07-28T11:41:55;3.70;;;2.05;;
7487;SDS011;3785;52.260;4.728;2023-07-28T11:45:16;5.10;;;2.20;;
7487;SDS011;3785;52.260;4.728;2023-07-28T11:48:38;3.60;;;2.10;;
7487;SDS011;3785;52.260;4.728;2023-07-28T11:51:59;5.07;;;2.58;;
7487;SDS011;3785;52.260;4.728;2023-07-28T11:55:20;4.68;;;2.15;;
7487;SDS011;3785;52.260;4.728;2023-07-28T11:58:41;5.03;;;2.25;;
7487;SDS011;3785;52.260;4.728;2023-07-28T12:02:02;5.55;;;2.22;;
7487;SDS011;3785;52.260;4.728;2023-07-28T12:05:27;3.50;;;2.15;;
7487;SDS011;3785;52.260;4.728;2023-07-28T12:08:48;4.93;;;2.05;;
7487;SDS011;3785;52.260;4.728;2023-07-28T12:12:09;3.00;;;2.03;;
7487;SDS011;3785;52.260;4.728;2023-07-28T12:15:30;3.97;;;2.30;;
7487;SDS011;3785;52.260;4.728;2023-07-28T12:18:51;4.65;;;2.10;;
7487;SDS011;3785;52.260;4.728;2023-07-28T12:22:18;4.85;;;2.53;;
7487;SDS011;3785;52.260;4.728;2023-07-28T12:25:39;3.58;;;1.92;;
7487;SDS011;3785;52.260;4.728;2023-07-28T12:28:59;3.33;;;2.13;;
7487;SDS011;3785;52.260;4.728;2023-07-28T12:32:20;5.35;;;2.05;;
7487;SDS011;3785;52.260;4.728;2023-07-28T12:35:41;3.83;;;2.00;;
7487;SDS011;3785;52.260;4.728;2023-07-28T12:39:01;4.07;;;1.88;;
7487;SDS011;3785;52.260;4.728;2023-07-28T12:42:23;3.20;;;1.80;;
7487;SDS011;3785;52.260;4.728;2023-07-28T12:45:43;4.05;;;1.92;;
7487;SDS011;3785;52.260;4.728;2023-07-28T12:49:04;5.22;;;1.83;;
7487;SDS011;3785;52.260;4.728;2023-07-28T12:52:27;3.50;;;1.77;;
7487;SDS011;3785;52.260;4.728;2023-07-28T12:55:47;3.42;;;2.00;;
7487;SDS011;3785;52.260;4.728;2023-07-28T12:59:08;3.38;;;2.30;;
7487;SDS011;3785;52.260;4.728;2023-07-28T13:02:29;3.58;;;1.60;;
7487;SDS011;3785;52.260;4.728;2023-07-28T13:05:49;3.78;;;1.55;;
7487;SDS011;3785;52.260;4.728;2023-07-28T13:09:10;3.25;;;1.77;;
7487;SDS011;3785;52.260;4.728;2023-07-28T13:12:30;3.35;;;1.83;;
7487;SDS011;3785;52.260;4.728;2023-07-28T13:15:51;3.75;;;1.80;;
7487;SDS011;3785;52.260;4.728;2023-07-28T13:19:11;3.97;;;2.38;;
7487;SDS011;3785;52.260;4.728;2023-07-28T13:22:32;4.50;;;2.08;;
7487;SDS011;3785;52.260;4.728;2023-07-28T13:25:53;3.20;;;2.00;;
7487;SDS011;3785;52.260;4.728;2023-07-28T13:29:13;3.03;;;2.13;;
7487;SDS011;3785;52.260;4.728;2023-07-28T13:32:34;2.20;;;1.50;;
7487;SDS011;3785;52.260;4.728;2023-07-28T13:35:55;3.03;;;1.63;;
7487;SDS011;3785;52.260;4.728;2023-07-28T13:39:15;2.33;;;1.90;;
7487;SDS011;3785;52.260;4.728;2023-07-28T13:42:36;4.15;;;1.98;;
7487;SDS011;3785;52.260;4.728;2023-07-28T13:45:56;3.15;;;1.83;;
7487;SDS011;3785;52.260;4.728;2023-07-28T13:49:18;2.83;;;1.60;;
7487;SDS011;3785;52.260;4.728;2023-07-28T13:52:38;4.25;;;2.30;;
7487;SDS011;3785;52.260;4.728;2023-07-28T13:55:59;2.53;;;1.58;;
7487;SDS011;3785;52.260;4.728;2023-07-28T13:59:19;4.93;;;2.20;;
7487;SDS011;3785;52.260;4.728;2023-07-28T14:02:40;2.17;;;1.50;;
7487;SDS011;3785;52.260;4.728;2023-07-28T14:06:01;2.38;;;1.60;;
7487;SDS011;3785;52.260;4.728;2023-07-28T14:09:21;7.03;;;2.15;;
7487;SDS011;3785;52.260;4.728;2023-07-28T14:12:42;3.63;;;2.15;;
7487;SDS011;3785;52.260;4.728;2023-07-28T14:16:02;2.13;;;1.55;;
7487;SDS011;3785;52.260;4.728;2023-07-28T14:19:23;2.55;;;1.55;;
7487;SDS011;3785;52.260;4.728;2023-07-28T14:22:44;2.70;;;1.38;;
7487;SDS011;3785;52.260;4.728;2023-07-28T14:26:04;3.88;;;1.40;;
7487;SDS011;3785;52.260;4.728;2023-07-28T14:29:25;4.82;;;1.60;;
7487;SDS011;3785;52.260;4.728;2023-07-28T14:32:46;3.03;;;1.80;;
7487;SDS011;3785;52.260;4.728;2023-07-28T14:36:06;2.67;;;1.85;;
7487;SDS011;3785;52.260;4.728;2023-07-28T14:39:27;2.40;;;1.70;;
7487;SDS011;3785;52.260;4.728;2023-07-28T14:42:48;2.75;;;1.80;;
7487;SDS011;3785;52.260;4.728;2023-07-28T14:46:08;2.47;;;1.50;;
7487;SDS011;3785;52.260;4.728;2023-07-28T14:49:29;2.40;;;1.48;;
7487;SDS011;3785;52.260;4.728;2023-07-28T14:52:49;2.90;;;1.50;;
7487;SDS011;3785;52.260;4.728;2023-07-28T14:56:10;2.65;;;1.55;;
7487;SDS011;3785;52.260;4.728;2023-07-28T14:59:30;2.40;;;1.65;;
7487;SDS011;3785;52.260;4.728;2023-07-28T15:02:51;3.10;;;1.48;;
7487;SDS011;3785;52.260;4.728;2023-07-28T15:06:11;1.95;;;1.13;;
7487;SDS011;3785;52.260;4.728;2023-07-28T15:09:32;2.40;;;1.60;;
7487;SDS011;3785;52.260;4.728;2023-07-28T15:12:53;2.33;;;1.40;;
7487;SDS011;3785;52.260;4.728;2023-07-28T15:16:22;3.17;;;1.10;;
7487;SDS011;3785;52.260;4.728;2023-07-28T15:19:43;1.50;;;1.00;;
7487;SDS011;3785;52.260;4.728;2023-07-28T15:23:04;1.48;;;1.10;;
7487;SDS011;3785;52.260;4.728;2023-07-28T15:26:35;2.85;;;1.50;;
7487;SDS011;3785;52.260;4.728;2023-07-28T15:29:59;2.75;;;1.40;;
7487;SDS011;3785;52.260;4.728;2023-07-28T15:33:27;3.00;;;1.90;;
7487;SDS011;3785;52.260;4.728;2023-07-28T15:36:49;2.33;;;1.63;;
7487;SDS011;3785;52.260;4.728;2023-07-28T15:40:09;4.18;;;2.30;;
7487;SDS011;3785;52.260;4.728;2023-07-28T15:43:30;3.53;;;2.17;;
7487;SDS011;3785;52.260;4.728;2023-07-28T15:46:51;4.90;;;3.15;;
7487;SDS011;3785;52.260;4.728;2023-07-28T15:50:12;6.03;;;2.95;;
7487;SDS011;3785;52.260;4.728;2023-07-28T15:53:33;3.65;;;2.40;;
7487;SDS011;3785;52.260;4.728;2023-07-28T15:56:53;4.63;;;2.60;;
7487;SDS011;3785;52.260;4.728;2023-07-28T16:00:14;4.45;;;2.53;;
7487;SDS011;3785;52.260;4.728;2023-07-28T16:03:35;4.65;;;2.58;;
7487;SDS011;3785;52.260;4.728;2023-07-28T16:06:56;5.03;;;2.88;;
7487;SDS011;3785;52.260;4.728;2023-07-28T16:10:16;4.47;;;2.85;;
7487;SDS011;3785;52.260;4.728;2023-07-28T16:13:37;5.68;;;3.13;;
7487;SDS011;3785;52.260;4.728;2023-07-28T16:16:57;5.70;;;3.30;;
7487;SDS011;3785;52.260;4.728;2023-07-28T16:20:18;6.75;;;3.60;;
7487;SDS011;3785;52.260;4.728;2023-07-28T16:23:38;6.45;;;4.65;;
7487;SDS011;3785;52.260;4.728;2023-07-28T16:26:59;7.70;;;4.30;;
7487;SDS011;3785;52.260;4.728;2023-07-28T16:30:20;5.95;;;4.22;;
7487;SDS011;3785;52.260;4.728;2023-07-28T16:33:40;6.60;;;4.00;;
7487;SDS011;3785;52.260;4.728;2023-07-28T16:37:01;7.05;;;4.47;;
7487;SDS011;3785;52.260;4.728;2023-07-28T16:40:21;7.15;;;4.05;;
7487;SDS011;3785;52.260;4.728;2023-07-28T16:43:42;5.63;;;4.00;;
7487;SDS011;3785;52.260;4.728;2023-07-28T16:47:02;5.43;;;3.60;;
7487;SDS011;3785;52.260;4.728;2023-07-28T16:50:23;3.97;;;2.45;;
7487;SDS011;3785;52.260;4.728;2023-07-28T16:53:44;3.25;;;1.50;;
7487;SDS011;3785;52.260;4.728;2023-07-28T16:57:04;1.40;;;0.90;;
7487;SDS011;3785;52.260;4.728;2023-07-28T17:00:25;1.50;;;1.25;;
7487;SDS011;3785;52.260;4.728;2023-07-28T17:03:46;2.58;;;0.88;;
7487;SDS011;3785;52.260;4.728;2023-07-28T17:07:06;4.47;;;0.90;;
7487;SDS011;3785;52.260;4.728;2023-07-28T17:10:27;2.00;;;1.10;;
7487;SDS011;3785;52.260;4.728;2023-07-28T17:13:48;1.40;;;0.88;;
7487;SDS011;3785;52.260;4.728;2023-07-28T17:17:08;1.52;;;0.90;;
7487;SDS011;3785;52.260;4.728;2023-07-28T17:20:29;1.52;;;0.80;;
7487;SDS011;3785;52.260;4.728;2023-07-28T17:23:50;3.25;;;1.00;;
7487;SDS011;3785;52.260;4.728;2023-07-28T17:27:11;1.25;;;0.80;;
7487;SDS011;3785;52.260;4.728;2023-07-28T17:30:31;2.85;;;1.05;;
7487;SDS011;3785;52.260;4.728;2023-07-28T17:33:52;1.67;;;1.00;;
7487;SDS011;3785;52.260;4.728;2023-07-28T17:37:12;1.80;;;0.90;;
7487;SDS011;3785;52.260;4.728;2023-07-28T17:40:33;1.60;;;0.90;;
7487;SDS011;3785;52.260;4.728;2023-07-28T17:43:53;2.67;;;1.20;;
7487;SDS011;3785;52.260;4.728;2023-07-28T17:47:14;2.63;;;1.40;;
7487;SDS011;3785;52.260;4.728;2023-07-28T17:50:35;2.42;;;1.48;;
7487;SDS011;3785;52.260;4.728;2023-07-28T17:53:56;3.45;;;2.03;;
7487;SDS011;3785;52.260;4.728;2023-07-28T17:57:17;3.38;;;2.03;;
7487;SDS011;3785;52.260;4.728;2023-07-28T18:00:37;4.20;;;1.33;;
7487;SDS011;3785;52.260;4.728;2023-07-28T18:03:58;2.03;;;1.20;;
7487;SDS011;3785;52.260;4.728;2023-07-28T18:07:18;2.70;;;0.90;;
7487;SDS011;3785;52.260;4.728;2023-07-28T18:10:40;1.80;;;0.93;;
7487;SDS011;3785;52.260;4.728;2023-07-28T18:14:01;2.25;;;0.82;;
7487;SDS011;3785;52.260;4.728;2023-07-28T18:17:21;1.20;;;0.60;;
7487;SDS011;3785;52.260;4.728;2023-07-28T18:20:42;1.38;;;0.75;;
7487;SDS011;3785;52.260;4.728;2023-07-28T18:24:02;2.15;;;0.90;;
7487;SDS011;3785;52.260;4.728;2023-07-28T18:27:23;1.77;;;1.00;;
7487;SDS011;3785;52.260;4.728;2023-07-28T18:30:44;1.60;;;0.85;;
7487;SDS011;3785;52.260;4.728;2023-07-28T18:34:04;1.50;;;0.68;;
7487;SDS011;3785;52.260;4.728;2023-07-28T18:37:25;2.83;;;1.65;;
7487;SDS011;3785;52.260;4.728;2023-07-28T18:40:46;3.20;;;1.70;;
7487;SDS011;3785;52.260;4.728;2023-07-28T18:44:06;1.77;;;0.60;;
7487;SDS011;3785;52.260;4.728;2023-07-28T18:47:27;0.85;;;0.75;;
7487;SDS011;3785;52.260;4.728;2023-07-28T18:50:47;1.02;;;0.57;;
7487;SDS011;3785;52.260;4.728;2023-07-28T18:54:09;1.30;;;0.93;;
7487;SDS011;3785;52.260;4.728;2023-07-28T18:57:30;2.50;;;0.57;;
7487;SDS011;3785;52.260;4.728;2023-07-28T19:00:50;1.05;;;0.70;;
7487;SDS011;3785;52.260;4.728;2023-07-28T19:04:12;1.75;;;0.77;;
7487;SDS011;3785;52.260;4.728;2023-07-28T19:07:32;2.20;;;0.73;;
7487;SDS011;3785;52.260;4.728;2023-07-28T19:10:53;1.38;;;0.75;;
7487;SDS011;3785;52.260;4.728;2023-07-28T19:14:14;1.33;;;0.80;;
7487;SDS011;3785;52.260;4.728;2023-07-28T19:17:34;2.60;;;0.80;;
7487;SDS011;3785;52.260;4.728;2023-07-28T19:20:55;2.05;;;0.70;;
7487;SDS011;3785;52.260;4.728;2023-07-28T19:24:15;3.10;;;1.10;;
7487;SDS011;3785;52.260;4.728;2023-07-28T19:27:36;1.60;;;0.65;;
7487;SDS011;3785;52.260;4.728;2023-07-28T19:30:57;3.05;;;1.00;;
7487;SDS011;3785;52.260;4.728;2023-07-28T19:34:22;2.28;;;0.77;;
7487;SDS011;3785;52.260;4.728;2023-07-28T19:37:43;0.68;;;0.40;;
7487;SDS011;3785;52.260;4.728;2023-07-28T19:41:04;1.58;;;0.60;;
7487;SDS011;3785;52.260;4.728;2023-07-28T19:44:24;1.17;;;0.63;;
7487;SDS011;3785;52.260;4.728;2023-07-28T19:47:45;1.20;;;0.52;;
7487;SDS011;3785;52.260;4.728;2023-07-28T19:51:05;2.08;;;0.52;;
7487;SDS011;3785;52.260;4.728;2023-07-28T19:54:27;2.47;;;0.98;;
7487;SDS011;3785;52.260;4.728;2023-07-28T19:57:49;0.65;;;0.50;;
7487;SDS011;3785;52.260;4.728;2023-07-28T20:01:10;2.97;;;0.60;;
7487;SDS011;3785;52.260;4.728;2023-07-28T20:04:30;2.38;;;0.70;;
7487;SDS011;3785;52.260;4.728;2023-07-28T20:07:52;1.58;;;0.90;;
7487;SDS011;3785;52.260;4.728;2023-07-28T20:11:12;1.73;;;0.93;;
7487;SDS011;3785;52.260;4.728;2023-07-28T20:14:33;1.17;;;0.70;;
7487;SDS011;3785;52.260;4.728;2023-07-28T20:17:53;2.20;;;0.80;;
7487;SDS011;3785;52.260;4.728;2023-07-28T20:21:14;1.60;;;0.90;;
7487;SDS011;3785;52.260;4.728;2023-07-28T20:24:34;1.23;;;0.77;;
7487;SDS011;3785;52.260;4.728;2023-07-28T20:27:55;1.20;;;0.80;;
7487;SDS011;3785;52.260;4.728;2023-07-28T20:31:16;2.75;;;0.80;;
7487;SDS011;3785;52.260;4.728;2023-07-28T20:34:37;1.60;;;1.00;;
7487;SDS011;3785;52.260;4.728;2023-07-28T20:37:58;1.15;;;0.70;;
7487;SDS011;3785;52.260;4.728;2023-07-28T20:41:19;2.03;;;1.00;;
7487;SDS011;3785;52.260;4.728;2023-07-28T20:44:40;1.30;;;0.90;;
7487;SDS011;3785;52.260;4.728;2023-07-28T20:48:00;1.70;;;0.70;;
7487;SDS011;3785;52.260;4.728;2023-07-28T20:51:21;2.42;;;1.02;;
7487;SDS011;3785;52.260;4.728;2023-07-28T20:54:41;4.60;;;2.58;;
7487;SDS011;3785;52.260;4.728;2023-07-28T20:58:04;4.72;;;1.80;;